createdAt,value
2023-03-15T00:01:08.680Z,99.90
2023-03-15T00:03:37.600Z,99.90
2023-03-15T00:06:06.519Z,99.90
2023-03-15T00:08:34.875Z,99.90
2023-03-15T00:11:03.561Z,99.90
2023-03-15T00:13:33.470Z,99.90
2023-03-15T00:16:04.182Z,99.90
2023-03-15T00:18:57.688Z,99.90
2023-03-15T00:21:26.174Z,99.90
2023-03-15T00:23:54.398Z,99.90
2023-03-15T00:26:23.080Z,99.90
2023-03-15T00:28:52.911Z,99.90
2023-03-15T00:31:23.305Z,99.90
2023-03-15T00:33:53.874Z,99.90
2023-03-15T00:36:24.015Z,99.90
2023-03-15T00:38:53.401Z,99.90
2023-03-15T00:41:23.070Z,99.90
2023-03-15T00:44:17.581Z,99.90
2023-03-15T00:46:46.003Z,99.90
2023-03-15T00:49:14.359Z,99.90
2023-03-15T00:51:42.650Z,99.90
2023-03-15T00:54:13.761Z,99.90
2023-03-15T00:56:42.818Z,99.90
2023-03-15T00:59:11.050Z,99.90
2023-03-15T01:01:44.639Z,99.90
2023-03-15T01:04:13.158Z,99.90
2023-03-15T01:06:42.401Z,99.90
2023-03-15T01:09:36.433Z,99.90
2023-03-15T01:12:04.848Z,99.90
2023-03-15T01:14:35.333Z,99.90
2023-03-15T01:17:20.049Z,99.90
2023-03-15T01:20:13.765Z,99.90
2023-03-15T01:22:42.285Z,99.90
2023-03-15T01:25:11.330Z,99.90
2023-03-15T01:27:39.677Z,99.90
2023-03-15T01:30:09.178Z,99.90
2023-03-15T01:32:38.857Z,99.90
2023-03-15T01:35:08.227Z,99.90
2023-03-15T01:37:36.644Z,99.90
2023-03-15T01:40:07.067Z,99.90
2023-03-15T01:42:50.599Z,99.90
2023-03-15T01:46:08.342Z,99.90
2023-03-15T01:48:44.728Z,99.90
2023-03-15T01:51:17.360Z,99.90
2023-03-15T01:53:50.333Z,99.90
2023-03-15T01:56:19.012Z,99.90
2023-03-15T01:58:49.335Z,99.90
2023-03-15T02:01:18.109Z,99.90
2023-03-15T02:03:54.407Z,99.90
2023-03-15T02:06:23.332Z,99.90
2023-03-15T02:08:54.483Z,99.90
2023-03-15T02:11:25.319Z,99.90
2023-03-15T02:13:55.322Z,99.90
2023-03-15T02:16:24.707Z,99.90
2023-03-15T02:18:54.406Z,99.90
2023-03-15T02:21:34.115Z,99.90
2023-03-15T02:24:19.810Z,99.90
2023-03-15T02:26:52.996Z,99.90
2023-03-15T02:29:24.914Z,99.90
2023-03-15T02:31:53.555Z,99.90
2023-03-15T02:34:25.379Z,99.90
2023-03-15T02:36:54.891Z,99.90
2023-03-15T02:39:24.569Z,99.90
2023-03-15T02:41:55.492Z,99.90
2023-03-15T02:44:57.694Z,99.90
2023-03-15T02:47:30.542Z,99.90
2023-03-15T02:49:58.811Z,99.90
2023-03-15T02:52:27.133Z,99.90
2023-03-15T02:54:55.359Z,99.90
2023-03-15T02:57:23.557Z,99.90
2023-03-15T02:59:51.823Z,99.90
2023-03-15T03:02:21.524Z,99.90
2023-03-15T03:04:49.817Z,99.90
2023-03-15T03:07:18.064Z,99.90
2023-03-15T03:09:46.401Z,99.90
2023-03-15T03:12:15.006Z,99.90
2023-03-15T03:14:43.749Z,99.90
2023-03-15T03:17:11.956Z,99.90
2023-03-15T03:19:41.573Z,99.90
2023-03-15T03:22:09.887Z,99.90
2023-03-15T03:24:38.177Z,99.90
2023-03-15T03:27:06.854Z,99.90
2023-03-15T03:29:35.190Z,99.90
2023-03-15T03:32:28.162Z,99.90
2023-03-15T03:34:57.881Z,99.90
2023-03-15T03:37:26.204Z,99.90
2023-03-15T03:40:09.127Z,99.90
2023-03-15T03:42:37.583Z,99.90
2023-03-15T03:45:06.632Z,99.90
2023-03-15T03:47:34.850Z,99.90
2023-03-15T03:50:04.794Z,99.90
2023-03-15T03:52:33.036Z,99.90
2023-03-15T03:55:01.279Z,99.90
2023-03-15T03:57:29.543Z,99.90
2023-03-15T03:59:58.672Z,99.90
2023-03-15T04:02:27.091Z,99.90
2023-03-15T04:04:55.435Z,99.90
2023-03-15T04:07:25.171Z,99.90
2023-03-15T04:09:53.361Z,99.90
2023-03-15T04:12:28.142Z,99.90
2023-03-15T04:14:56.363Z,99.90
2023-03-15T04:17:32.121Z,99.90
2023-03-15T04:20:05.182Z,99.90
2023-03-15T04:22:35.933Z,99.90
2023-03-15T04:25:04.556Z,99.90
2023-03-15T04:27:32.830Z,99.90
2023-03-15T04:30:06.941Z,99.90
2023-03-15T04:32:35.439Z,99.90
2023-03-15T04:35:08.085Z,99.90
2023-03-15T04:37:37.731Z,99.90
2023-03-15T04:40:07.999Z,99.90
2023-03-15T04:42:36.303Z,99.90
2023-03-15T04:45:04.968Z,99.90
2023-03-15T04:47:33.246Z,99.90
2023-03-15T04:50:01.557Z,99.90
2023-03-15T04:52:29.858Z,99.90
2023-03-15T04:54:59.581Z,99.90
2023-03-15T04:57:27.828Z,99.90
2023-03-15T04:59:57.098Z,99.90
2023-03-15T05:02:25.398Z,99.90
2023-03-15T05:04:53.756Z,99.90
2023-03-15T05:07:35.067Z,99.90
2023-03-15T05:10:05.985Z,99.90
2023-03-15T05:12:34.860Z,99.90
2023-03-15T05:15:03.155Z,99.90
2023-03-15T05:17:33.688Z,99.90
2023-03-15T05:20:27.532Z,99.90
2023-03-15T05:22:55.791Z,99.90
2023-03-15T05:25:25.550Z,99.90
2023-03-15T05:27:54.130Z,99.90
2023-03-15T05:30:22.518Z,99.90
2023-03-15T05:32:52.315Z,99.90
2023-03-15T05:35:45.546Z,99.90
2023-03-15T05:38:15.083Z,99.90
2023-03-15T05:40:45.455Z,99.90
2023-03-15T05:43:13.923Z,99.90
2023-03-15T05:45:44.700Z,99.90
2023-03-15T05:48:13.100Z,99.90
2023-03-15T05:50:41.374Z,99.90
2023-03-15T05:53:09.962Z,99.90
2023-03-15T05:56:04.677Z,99.90
2023-03-15T05:58:32.919Z,99.90
2023-03-15T06:01:26.020Z,99.90
2023-03-15T06:03:54.285Z,99.90
2023-03-15T06:06:22.483Z,99.90
2023-03-15T06:08:50.723Z,99.90
2023-03-15T06:11:20.538Z,99.90
2023-03-15T06:13:48.873Z,99.90
2023-03-15T06:16:17.207Z,99.90
2023-03-15T06:18:45.498Z,99.90
2023-03-15T06:21:14.907Z,99.90
2023-03-15T06:23:43.205Z,99.90
2023-03-15T06:26:11.497Z,99.90
2023-03-15T06:28:41.133Z,99.90
2023-03-15T06:31:09.655Z,99.90
2023-03-15T06:33:38.029Z,99.90
2023-03-15T06:36:06.828Z,99.90
2023-03-15T06:38:35.487Z,99.90
2023-03-15T06:41:05.813Z,99.90
2023-03-15T06:43:34.109Z,99.90
2023-03-15T06:46:03.730Z,99.90
2023-03-15T06:48:32.015Z,99.90
2023-03-15T06:51:00.403Z,99.90
2023-03-15T06:53:28.674Z,99.90
2023-03-15T06:55:56.962Z,99.90
2023-03-15T06:58:25.232Z,99.90
2023-03-15T07:00:53.502Z,99.90
2023-03-15T07:03:23.723Z,99.90
2023-03-15T07:05:54.124Z,99.90
2023-03-15T07:08:23.972Z,99.10
2023-03-15T07:10:52.706Z,98.70
2023-03-15T07:13:21.417Z,96.10
2023-03-15T07:15:53.921Z,95.30
2023-03-15T07:18:24.041Z,92.70
2023-03-15T07:20:57.783Z,91.80
2023-03-15T07:23:26.228Z,88.60
2023-03-15T07:25:55.917Z,89.80
2023-03-15T07:28:26.006Z,90.20
2023-03-15T07:30:55.592Z,90.00
2023-03-15T07:33:26.504Z,92.10
2023-03-15T07:35:55.415Z,91.90
2023-03-15T07:38:24.953Z,90.80
2023-03-15T07:40:53.634Z,90.70
2023-03-15T07:43:21.940Z,90.70
2023-03-15T07:45:50.965Z,90.60
2023-03-15T07:48:19.545Z,88.90
2023-03-15T07:50:49.250Z,88.80
2023-03-15T07:53:17.591Z,87.20
2023-03-15T07:55:47.785Z,84.60
2023-03-15T07:58:18.539Z,85.80
2023-03-15T08:00:48.749Z,84.50
2023-03-15T08:03:17.375Z,82.10
2023-03-15T08:05:45.604Z,84.00
2023-03-15T08:08:15.253Z,83.50
2023-03-15T08:10:44.747Z,84.70
2023-03-15T08:13:13.071Z,82.30
2023-03-15T08:15:41.426Z,84.50
2023-03-15T08:18:09.754Z,82.40
2023-03-15T08:20:38.127Z,80.10
2023-03-15T08:23:06.594Z,81.30
2023-03-15T08:25:40.766Z,81.60
2023-03-15T08:28:09.327Z,82.50
2023-03-15T08:30:37.528Z,80.80
2023-03-15T08:33:05.930Z,78.50
2023-03-15T08:35:34.826Z,79.00
2023-03-15T08:38:03.775Z,78.70
2023-03-15T08:40:32.728Z,78.50
2023-03-15T08:43:02.656Z,78.00
2023-03-15T08:45:33.033Z,77.60
2023-03-15T08:48:03.100Z,78.10
2023-03-15T08:50:32.752Z,78.90
2023-03-15T08:53:01.031Z,79.90
2023-03-15T08:55:31.359Z,78.80
2023-03-15T08:58:01.486Z,78.20
2023-03-15T09:00:31.861Z,78.80
2023-03-15T09:03:00.104Z,74.30
2023-03-15T09:05:28.816Z,74.10
2023-03-15T09:07:57.091Z,74.90
2023-03-15T09:10:25.390Z,76.10
2023-03-15T09:12:54.245Z,77.20
2023-03-15T09:15:22.980Z,78.10
2023-03-15T09:17:52.876Z,78.60
2023-03-15T09:20:23.128Z,79.20
2023-03-15T09:22:53.585Z,80.40
2023-03-15T09:25:22.658Z,79.40
2023-03-15T09:27:51.398Z,80.70
2023-03-15T09:30:29.565Z,81.40
2023-03-15T09:32:59.481Z,81.90
2023-03-15T09:35:28.238Z,81.30
2023-03-15T09:37:56.884Z,82.30
2023-03-15T09:40:28.229Z,83.30
2023-03-15T09:43:18.967Z,82.20
2023-03-15T09:46:00.304Z,82.10
2023-03-15T09:48:35.562Z,80.80
2023-03-15T09:51:09.854Z,82.30
2023-03-15T09:53:42.870Z,80.70
2023-03-15T09:56:22.592Z,81.40
2023-03-15T09:58:53.534Z,81.00
2023-03-15T10:01:27.040Z,80.70
2023-03-15T10:04:26.484Z,80.70
2023-03-15T10:06:56.982Z,80.00
2023-03-15T10:09:27.726Z,80.30
2023-03-15T10:12:04.271Z,81.20
2023-03-15T10:14:51.764Z,81.00
2023-03-15T10:17:26.922Z,81.00
2023-03-15T10:20:06.122Z,81.70
2023-03-15T10:22:41.405Z,82.20
2023-03-15T10:25:17.044Z,81.70
2023-03-15T10:27:49.903Z,82.20
2023-03-15T10:30:21.474Z,79.30
2023-03-15T10:32:53.825Z,79.00
2023-03-15T10:35:23.428Z,78.70
2023-03-15T10:38:16.692Z,80.40
2023-03-15T10:40:47.471Z,81.20
2023-03-15T10:43:41.522Z,81.50
2023-03-15T10:46:35.523Z,80.90
2023-03-15T10:49:12.072Z,81.40
2023-03-15T10:51:43.633Z,83.30
2023-03-15T10:54:17.727Z,84.10
2023-03-15T10:56:48.834Z,85.00
2023-03-15T10:59:19.747Z,85.80
2023-03-15T11:01:49.786Z,86.00
2023-03-15T11:04:21.448Z,88.00
2023-03-15T11:07:03.479Z,87.90
2023-03-15T11:09:40.775Z,88.60
2023-03-15T11:12:10.750Z,88.70
2023-03-15T11:14:42.136Z,89.80
2023-03-15T11:17:18.371Z,90.20
2023-03-15T11:19:55.125Z,90.30
2023-03-15T11:22:25.581Z,90.10
2023-03-15T11:24:55.382Z,90.40
2023-03-15T11:27:39.168Z,91.10
2023-03-15T11:30:14.746Z,92.50
2023-03-15T11:32:44.533Z,93.70
2023-03-15T11:35:19.189Z,94.40
2023-03-15T11:37:55.225Z,98.20
2023-03-15T11:40:32.788Z,99.90
2023-03-15T11:43:07.221Z,99.80
2023-03-15T11:45:40.389Z,99.90
2023-03-15T11:48:17.854Z,99.90
2023-03-15T11:50:46.419Z,99.90
2023-03-15T11:53:17.950Z,99.90
2023-03-15T11:55:49.878Z,99.90
2023-03-15T11:58:34.049Z,99.90
2023-03-15T12:01:03.988Z,99.90
2023-03-15T12:04:12.787Z,99.90
2023-03-15T12:06:48.257Z,99.60
2023-03-15T12:09:49.076Z,99.90
2023-03-15T12:12:37.604Z,99.90
2023-03-15T12:15:28.057Z,99.60
2023-03-15T12:17:57.684Z,99.90
2023-03-15T12:20:34.883Z,99.90
2023-03-15T12:23:29.866Z,99.10
2023-03-15T12:26:06.331Z,99.90
2023-03-15T12:28:37.492Z,99.90
2023-03-15T12:31:07.896Z,99.90
2023-03-15T12:33:47.134Z,99.90
2023-03-15T12:36:27.762Z,99.90
2023-03-15T12:39:02.143Z,99.90
2023-03-15T12:41:43.695Z,99.90
2023-03-15T12:44:38.811Z,99.90
2023-03-15T12:47:08.136Z,99.90
2023-03-15T12:49:42.815Z,99.90
2023-03-15T12:52:34.948Z,99.90
2023-03-15T12:55:16.726Z,99.90
2023-03-15T12:57:54.025Z,99.90
2023-03-15T13:00:24.358Z,99.90
2023-03-15T13:03:01.963Z,99.90
2023-03-15T13:05:36.222Z,99.90
2023-03-15T13:08:10.073Z,99.90
2023-03-15T13:10:54.807Z,99.90
2023-03-15T13:13:49.886Z,99.90
2023-03-15T13:16:28.502Z,99.90
2023-03-15T13:19:05.477Z,99.90
2023-03-15T13:21:37.259Z,99.90
2023-03-15T13:24:13.890Z,99.90
2023-03-15T13:26:55.094Z,99.90
2023-03-15T13:29:30.572Z,99.90
2023-03-15T13:32:08.061Z,99.90
2023-03-15T13:34:36.614Z,99.90
2023-03-15T13:37:05.026Z,99.90
2023-03-15T13:39:34.632Z,99.90
2023-03-15T13:42:04.798Z,99.90
2023-03-15T13:44:34.968Z,99.90
2023-03-15T13:47:03.726Z,99.90
2023-03-15T13:49:33.909Z,99.90
2023-03-15T13:52:05.417Z,99.90
2023-03-15T13:54:35.317Z,99.90
2023-03-15T13:57:07.481Z,99.90
2023-03-15T14:00:01.114Z,99.90
2023-03-15T14:02:39.001Z,99.90
2023-03-15T14:05:10.969Z,99.90
2023-03-15T14:07:41.725Z,99.90
2023-03-15T14:10:30.221Z,99.90
2023-03-15T14:12:59.837Z,99.90
2023-03-15T14:15:39.329Z,99.90
2023-03-15T14:18:18.167Z,99.90
2023-03-15T14:20:48.264Z,99.90
2023-03-15T14:23:19.860Z,99.90
2023-03-15T14:25:52.525Z,99.90
2023-03-15T14:28:24.444Z,99.90
2023-03-15T14:30:56.157Z,99.90
2023-03-15T14:33:29.944Z,99.90
2023-03-15T14:36:01.483Z,99.90
2023-03-15T14:38:34.767Z,99.90
2023-03-15T14:41:23.554Z,99.90
2023-03-15T14:43:51.935Z,99.90
2023-03-15T14:46:21.564Z,99.90
2023-03-15T14:48:50.906Z,99.90
2023-03-15T14:51:21.696Z,99.90
2023-03-15T14:53:53.352Z,99.90
2023-03-15T14:56:21.908Z,99.90
2023-03-15T14:58:59.193Z,99.90
2023-03-15T15:01:29.410Z,99.90
2023-03-15T15:04:12.456Z,99.90
2023-03-15T15:06:52.661Z,99.90
2023-03-15T15:09:24.529Z,99.90
2023-03-15T15:11:53.772Z,99.90
2023-03-15T15:14:23.033Z,99.90
2023-03-15T15:16:53.055Z,99.90
2023-03-15T15:19:21.594Z,99.90
2023-03-15T15:21:49.839Z,99.90
2023-03-15T15:24:22.449Z,99.90
2023-03-15T15:26:53.916Z,99.90
2023-03-15T15:29:22.218Z,99.90
2023-03-15T15:31:50.444Z,99.90
2023-03-15T15:34:47.843Z,99.90
2023-03-15T15:37:16.785Z,99.90
2023-03-15T15:39:45.243Z,99.90
2023-03-15T15:42:38.761Z,99.90
2023-03-15T15:45:13.582Z,99.90
2023-03-15T15:47:41.885Z,99.90
2023-03-15T15:50:15.482Z,99.90
2023-03-15T15:52:45.677Z,99.90
2023-03-15T15:55:16.127Z,99.90
2023-03-15T15:57:49.557Z,99.90
2023-03-15T16:00:20.264Z,99.90
2023-03-15T16:02:49.342Z,99.90
2023-03-15T16:05:19.219Z,99.90
2023-03-15T16:07:47.552Z,99.90
2023-03-15T16:10:20.613Z,99.90
2023-03-15T16:13:13.549Z,99.90
2023-03-15T16:15:41.933Z,99.90
2023-03-15T16:18:11.263Z,99.90
2023-03-15T16:20:41.444Z,99.90
2023-03-15T16:23:19.581Z,99.90
2023-03-15T16:25:50.402Z,99.90
2023-03-15T16:28:18.665Z,99.90
2023-03-15T16:30:47.356Z,99.90
2023-03-15T16:33:17.312Z,99.90
2023-03-15T16:35:49.989Z,99.90
2023-03-15T16:38:24.508Z,99.90
2023-03-15T16:40:54.046Z,99.90
2023-03-15T16:43:22.357Z,99.90
2023-03-15T16:45:50.722Z,99.90
2023-03-15T16:48:19.215Z,99.90
2023-03-15T16:50:48.960Z,99.90
2023-03-15T16:53:17.344Z,99.90
2023-03-15T16:56:00.827Z,99.90
2023-03-15T16:58:29.091Z,99.90
2023-03-15T17:00:57.386Z,99.90
2023-03-15T17:03:25.782Z,99.90
2023-03-15T17:05:55.470Z,99.90
2023-03-15T17:08:25.373Z,99.90
2023-03-15T17:10:53.925Z,99.90
2023-03-15T17:13:27.840Z,99.90
2023-03-15T17:15:56.104Z,99.90
2023-03-15T17:18:49.630Z,99.90
2023-03-15T17:21:21.431Z,99.90
2023-03-15T17:23:51.635Z,99.90
2023-03-15T17:26:23.367Z,99.90
2023-03-15T17:29:16.990Z,99.90
2023-03-15T17:31:45.773Z,99.90
2023-03-15T17:34:14.148Z,99.90
2023-03-15T17:36:43.906Z,99.90
2023-03-15T17:39:17.262Z,99.90
2023-03-15T17:41:49.080Z,99.90
2023-03-15T17:44:17.358Z,99.90
2023-03-15T17:46:45.741Z,99.90
2023-03-15T17:49:15.844Z,99.90
2023-03-15T17:51:45.429Z,99.90
2023-03-15T17:54:15.262Z,99.90
2023-03-15T17:56:43.522Z,99.90
2023-03-15T17:59:12.893Z,99.90
2023-03-15T18:01:43.510Z,99.90
2023-03-15T18:04:13.050Z,99.90
2023-03-15T18:06:42.196Z,99.90
2023-03-15T18:09:13.224Z,99.90
2023-03-15T18:11:43.581Z,99.90
2023-03-15T18:14:38.171Z,99.90
2023-03-15T18:17:06.540Z,99.90
2023-03-15T18:19:34.809Z,99.90
2023-03-15T18:22:03.137Z,99.90
2023-03-15T18:24:34.433Z,99.90
2023-03-15T18:27:02.815Z,99.90
2023-03-15T18:29:31.737Z,99.90
2023-03-15T18:32:00.184Z,99.90
2023-03-15T18:34:28.594Z,99.90
2023-03-15T18:36:56.997Z,99.90
2023-03-15T18:39:25.355Z,99.90
2023-03-15T18:41:54.963Z,99.90
2023-03-15T18:44:23.258Z,99.90
2023-03-15T18:46:51.500Z,99.90
2023-03-15T18:49:19.722Z,99.90
2023-03-15T18:51:48.037Z,99.90
2023-03-15T18:54:16.212Z,99.90
2023-03-15T18:56:44.672Z,99.90
2023-03-15T18:59:14.294Z,99.90
2023-03-15T19:01:43.114Z,99.90
2023-03-15T19:04:12.097Z,99.90
2023-03-15T19:06:40.707Z,99.90
2023-03-15T19:09:09.015Z,99.90
2023-03-15T19:11:41.651Z,99.90
2023-03-15T19:14:10.690Z,99.90
2023-03-15T19:16:40.415Z,99.90
2023-03-15T19:19:08.728Z,99.90
2023-03-15T19:21:38.789Z,99.90
2023-03-15T19:24:33.232Z,99.90
2023-03-15T19:27:01.446Z,99.90
2023-03-15T19:29:29.794Z,99.90
2023-03-15T19:31:59.913Z,99.90
2023-03-15T19:34:28.276Z,99.90
2023-03-15T19:37:25.761Z,99.90
2023-03-15T19:39:54.571Z,99.90
2023-03-15T19:42:22.842Z,99.90
2023-03-15T19:44:51.092Z,99.90
2023-03-15T19:47:20.671Z,99.90
2023-03-15T19:49:49.035Z,99.90
2023-03-15T19:52:17.275Z,99.90
2023-03-15T19:54:47.580Z,99.90
2023-03-15T19:57:15.898Z,99.90
2023-03-15T19:59:44.229Z,99.90
2023-03-15T20:02:13.128Z,99.90
2023-03-15T20:04:42.843Z,99.90
2023-03-15T20:07:12.339Z,99.90
2023-03-15T20:09:41.512Z,99.90
2023-03-15T20:12:12.005Z,99.90
2023-03-15T20:14:40.798Z,99.90
2023-03-15T20:17:09.063Z,99.90
2023-03-15T20:19:37.382Z,99.90
2023-03-15T20:22:07.129Z,99.90
2023-03-15T20:24:42.594Z,99.90
2023-03-15T20:27:10.994Z,99.90
2023-03-15T20:29:39.267Z,99.90
2023-03-15T20:32:07.940Z,99.90
2023-03-15T20:34:36.275Z,99.90
2023-03-15T20:37:06.779Z,99.90
2023-03-15T20:39:35.184Z,99.90
2023-03-15T20:42:29.239Z,99.90
2023-03-15T20:44:57.391Z,99.90
2023-03-15T20:47:25.669Z,99.90
2023-03-15T20:49:54.229Z,99.90
2023-03-15T20:52:23.899Z,99.90
2023-03-15T20:54:52.121Z,99.90
2023-03-15T20:57:20.801Z,99.90
2023-03-15T20:59:49.101Z,99.90
2023-03-15T21:02:17.334Z,99.90
2023-03-15T21:04:46.219Z,99.90
2023-03-15T21:07:41.123Z,99.90
2023-03-15T21:10:10.683Z,99.90
2023-03-15T21:12:38.982Z,99.90
2023-03-15T21:15:08.449Z,99.90
2023-03-15T21:17:36.706Z,99.90
2023-03-15T21:20:07.759Z,99.90
2023-03-15T21:22:36.082Z,99.90
2023-03-15T21:25:06.320Z,99.90
2023-03-15T21:27:34.993Z,99.90
2023-03-15T21:30:03.369Z,99.90
2023-03-15T21:32:31.576Z,99.90
2023-03-15T21:35:06.579Z,99.90
2023-03-15T21:37:59.595Z,99.90
2023-03-15T21:40:29.290Z,99.90
2023-03-15T21:42:57.496Z,99.90
2023-03-15T21:45:26.385Z,99.90
2023-03-15T21:47:54.706Z,99.90
2023-03-15T21:50:23.429Z,99.90
2023-03-15T21:52:51.922Z,99.90
2023-03-15T21:55:20.154Z,99.90
2023-03-15T21:57:50.138Z,99.90
2023-03-15T22:00:31.849Z,99.90
2023-03-15T22:03:00.144Z,99.90
2023-03-15T22:05:31.283Z,99.90
2023-03-15T22:07:59.450Z,99.90
2023-03-15T22:10:27.876Z,99.90
2023-03-15T22:12:57.440Z,99.90
2023-03-15T22:15:25.758Z,99.90
2023-03-15T22:17:53.997Z,99.90
2023-03-15T22:20:24.097Z,99.90
2023-03-15T22:22:52.754Z,99.90
2023-03-15T22:25:57.488Z,99.90
2023-03-15T22:29:11.986Z,99.90
2023-03-15T22:31:40.151Z,99.90
2023-03-15T22:34:09.253Z,99.90
2023-03-15T22:36:37.433Z,99.90
2023-03-15T22:39:06.067Z,99.90
2023-03-15T22:41:34.391Z,99.90
2023-03-15T22:44:02.724Z,99.90
2023-03-15T22:46:57.017Z,99.90
2023-03-15T22:49:52.104Z,99.90
2023-03-15T22:53:11.256Z,99.90
2023-03-15T22:55:39.523Z,99.90
2023-03-15T22:58:07.835Z,99.90
2023-03-15T23:00:36.086Z,99.90
2023-03-15T23:03:05.704Z,99.90
2023-03-15T23:05:35.216Z,99.90
2023-03-15T23:08:04.342Z,99.90
2023-03-15T23:10:32.895Z,99.90
2023-03-15T23:13:02.196Z,99.90
2023-03-15T23:15:30.951Z,99.90
2023-03-15T23:18:26.074Z,99.90
2023-03-15T23:20:54.261Z,99.90
2023-03-15T23:23:22.512Z,99.90
2023-03-15T23:25:54.047Z,99.90
2023-03-15T23:28:24.459Z,99.90
2023-03-15T23:31:01.791Z,99.90
2023-03-15T23:33:34.204Z,99.90
2023-03-15T23:36:03.063Z,99.90
2023-03-15T23:38:34.475Z,99.90
2023-03-15T23:41:28.137Z,99.90
2023-03-15T23:43:56.449Z,99.90
2023-03-15T23:46:24.773Z,99.90
2023-03-15T23:48:54.493Z,99.90
2023-03-15T23:51:23.274Z,99.90
2023-03-15T23:53:51.572Z,99.90
2023-03-15T23:56:19.744Z,99.90
2023-03-15T23:58:47.979Z,99.90
